Time;durP1;ratioP1;P1;durP2;ratioP2;P2;SDS_P1;SDS_P2;PMS_P1;PMS_P2;Temp;Humidity;BMP_temperature;BMP_pressure;BME280_temperature;BME280_humidity;BME280_pressure;Samples;Min_cycle;Max_cycle;Signal;HPM_P1;HPM_P2
2022/06/30 00:02:08;;;;;;;7.03;3.83;;;;;;;14.50;79.60;99739.81;1813929;78;21607;-62
2022/06/30 00:04:34;;;;;;;6.05;3.15;;;;;;;14.55;79.68;99739.57;1813785;77;21212;-62
2022/06/30 00:07:01;;;;;;;5.85;3.77;;;;;;;14.60;79.76;99744.55;1815521;77;21719;-62
2022/06/30 00:09:28;;;;;;;4.57;3.20;;;;;;;14.65;79.87;99742.47;1814276;78;22172;-62
2022/06/30 00:11:55;;;;;;;9.55;3.60;;;;;;;14.70;79.96;99723.28;1819512;78;20960;-62
2022/06/30 00:14:21;;;;;;;7.00;3.60;;;;;;;14.73;80.02;99725.27;1813607;77;21122;-62
2022/06/30 00:16:48;;;;;;;5.30;3.37;;;;;;;14.77;80.05;99728.53;1816830;77;22479;-62
2022/06/30 00:19:15;;;;;;;4.97;3.72;;;;;;;14.78;80.05;99724.95;1816089;77;22514;-62
2022/06/30 00:21:42;;;;;;;5.53;3.40;;;;;;;14.77;80.08;99719.33;1811588;77;21704;-62
2022/06/30 00:24:08;;;;;;;5.30;3.23;;;;;;;14.76;80.08;99712.40;1815923;77;22222;-62
2022/06/30 00:26:35;;;;;;;5.72;3.58;;;;;;;14.74;80.17;99723.48;1813310;77;21420;-62
2022/06/30 00:29:02;;;;;;;7.37;3.70;;;;;;;14.72;80.35;99720.09;1821347;77;21610;-62
2022/06/30 00:31:29;;;;;;;5.12;3.70;;;;;;;14.73;80.39;99719.14;1820770;77;21022;-62
2022/06/30 00:34:25;;;;;;;7.55;3.60;;;;;;;14.78;80.63;99723.64;1823226;77;21439;-60
2022/06/30 00:36:52;;;;;;;6.05;3.70;;;;;;;14.76;80.61;99713.72;1794735;78;21056;-61
2022/06/30 00:39:18;;;;;;;7.40;4.30;;;;;;;14.80;80.73;99715.19;1798186;78;21959;-60
2022/06/30 00:41:45;;;;;;;11.13;4.07;;;;;;;14.84;80.75;99708.78;1794744;78;21037;-60
2022/06/30 00:44:15;;;;;;;10.20;3.98;;;;;;;14.83;80.72;99701.84;1796750;78;21039;-61
2022/06/30 00:46:42;;;;;;;6.62;4.20;;;;;;;14.78;80.61;99702.61;1801497;78;21247;-61
2022/06/30 00:49:08;;;;;;;7.17;4.37;;;;;;;14.75;80.71;99698.87;1796856;78;21020;-61
2022/06/30 00:51:35;;;;;;;7.03;3.90;;;;;;;14.72;80.77;99696.44;1793710;78;21503;-61
2022/06/30 00:54:05;;;;;;;4.40;4.00;;;;;;;14.70;80.79;99698.31;1799619;78;21203;-61
2022/06/30 00:56:34;;;;;;;7.17;3.90;;;;;;;14.67;80.73;99698.52;1792496;78;20966;-62
2022/06/30 00:59:05;;;;;;;6.80;4.03;;;;;;;14.60;80.69;99690.67;1795169;78;21056;-62
2022/06/30 01:01:33;;;;;;;5.60;3.80;;;;;;;14.50;80.74;99687.27;1799687;78;20958;-61
2022/06/30 01:04:00;;;;;;;7.10;4.35;;;;;;;14.41;80.85;99687.87;1794710;78;21571;-61
2022/06/30 01:06:27;;;;;;;;;;;;;;;14.38;81.06;99690.69;1801656;77;20963;-61
2022/06/30 01:08:54;;;;;;;7.45;4.47;;;;;;;14.38;81.31;99693.32;1800956;78;20128;-61
2022/06/30 01:14:06;;;;;;;5.65;4.05;;;;;;;14.38;81.39;99699.89;1795538;78;21392;-61
2022/06/30 01:16:33;;;;;;;8.73;3.98;;;;;;;14.32;81.22;99705.53;1792270;78;21113;-61
2022/06/30 01:19:03;;;;;;;5.17;3.87;;;;;;;14.29;81.22;99710.98;1793967;78;21084;-61
2022/06/30 01:22:03;;;;;;;6.92;3.58;;;;;;;14.21;81.38;99694.86;1793864;78;21446;-62
2022/06/30 01:24:30;;;;;;;6.30;4.03;;;;;;;14.14;81.45;99686.98;1795447;78;20955;-62
2022/06/30 01:26:57;;;;;;;7.72;4.65;;;;;;;14.06;81.43;99685.69;1794306;78;21164;-61
2022/06/30 01:29:24;;;;;;;8.10;5.37;;;;;;;14.04;81.63;99678.84;1794190;78;21086;-61
2022/06/30 01:31:51;;;;;;;9.95;5.22;;;;;;;14.03;81.65;99685.88;1795449;78;21580;-61
2022/06/30 01:34:23;;;;;;;7.55;4.50;;;;;;;14.02;81.65;99680.23;1782857;78;20996;-61
2022/06/30 01:36:50;;;;;;;8.95;4.42;;;;;;;13.99;81.57;99681.74;1778351;78;21585;-62
2022/06/30 01:39:17;;;;;;;5.85;4.03;;;;;;;13.95;81.78;99682.02;1783734;78;21001;-61
2022/06/30 01:41:43;;;;;;;9.27;4.93;;;;;;;13.91;81.96;99678.75;1778816;79;21090;-61
2022/06/30 01:44:11;;;;;;;5.40;4.28;;;;;;;13.88;82.15;99675.00;1782269;79;21552;-61
2022/06/30 01:46:47;;;;;;;6.85;4.87;;;;;;;13.86;82.26;99678.19;1769178;78;20990;-62
2022/06/30 01:49:14;;;;;;;6.63;4.97;;;;;;;13.86;82.37;99679.05;1771280;80;20985;-62
2022/06/30 01:51:42;;;;;;;6.40;3.98;;;;;;;13.87;82.57;99680.73;1780100;78;27286;-61
2022/06/30 01:54:10;;;;;;;8.43;4.65;;;;;;;13.88;82.58;99686.81;1777537;78;22270;-61
2022/06/30 01:56:38;;;;;;;6.67;3.77;;;;;;;13.87;82.68;99685.14;1781465;78;20965;-61
2022/06/30 01:59:05;;;;;;;5.12;3.80;;;;;;;13.87;82.64;99694.33;1778147;80;21029;-61
2022/06/30 02:01:33;;;;;;;9.23;3.92;;;;;;;13.86;82.67;99699.17;1775379;78;20993;-61
2022/06/30 02:04:46;;;;;;;5.40;3.55;;;;;;;13.84;82.62;99698.45;1775299;80;21515;-61
2022/06/30 02:06:29;;;;;;;6.53;4.33;;;;;;;13.81;82.64;99693.39;1775955;80;21559;-61
2022/06/30 02:08:55;;;;;;;13.03;5.00;;;;;;;13.77;82.71;99691.41;1773629;80;21412;-61
2022/06/30 02:11:22;;;;;;;4.42;3.80;;;;;;;13.79;83.00;99693.95;1781349;78;21861;-61
2022/06/30 02:13:49;;;;;;;7.93;4.37;;;;;;;13.81;83.05;99690.77;1785447;78;20984;-61
2022/06/30 02:16:15;;;;;;;7.43;4.93;;;;;;;13.84;83.15;99676.14;1786253;78;21017;-61
2022/06/30 02:18:42;;;;;;;6.30;4.77;;;;;;;13.87;83.11;99682.52;1776962;78;21833;-61
2022/06/30 02:21:09;;;;;;;6.90;4.70;;;;;;;13.88;83.20;99682.88;1778977;80;21124;-61
2022/06/30 02:23:36;;;;;;;8.03;5.00;;;;;;;13.92;83.41;99688.33;1782897;78;21051;-62
2022/06/30 02:26:02;;;;;;;7.65;4.25;;;;;;;13.94;83.39;99696.93;1768338;78;21080;-61
2022/06/30 02:28:29;;;;;;;6.73;5.03;;;;;;;13.95;83.48;99703.89;1782252;79;21063;-61
2022/06/30 02:30:56;;;;;;;4.78;4.12;;;;;;;13.97;83.43;99698.05;1775877;79;21054;-61
2022/06/30 02:33:23;;;;;;;9.03;4.83;;;;;;;13.99;83.45;99715.88;1786639;78;20896;-61
2022/06/30 02:35:49;;;;;;;8.15;4.20;;;;;;;14.04;83.41;99713.81;1792573;78;22043;-61
2022/06/30 02:38:16;;;;;;;6.67;5.53;;;;;;;14.09;83.62;99706.50;1799488;78;21528;-61
2022/06/30 02:40:43;;;;;;;7.25;4.40;;;;;;;14.26;83.95;99711.17;1793047;78;21610;-61
2022/06/30 02:43:31;;;;;;;9.30;5.10;;;;;;;14.40;84.07;99707.20;1793050;78;21063;-61
2022/06/30 02:45:58;;;;;;;6.97;4.92;;;;;;;14.39;84.89;99705.50;1725343;81;21100;-61
2022/06/30 02:48:25;;;;;;;7.42;4.53;;;;;;;14.52;85.29;99709.08;1733809;81;21013;-62
2022/06/30 02:50:52;;;;;;;6.42;4.25;;;;;;;14.80;85.01;99709.94;1709067;82;21116;-60
2022/06/30 02:53:19;;;;;;;8.55;4.55;;;;;;;15.14;84.91;99701.14;1735336;81;21033;-61
2022/06/30 02:55:46;;;;;;;8.33;4.05;;;;;;;15.38;84.61;99713.98;1731722;81;21059;-61
2022/06/30 02:58:12;;;;;;;;;;;;;;;15.56;84.25;99711.05;1731946;81;21732;-61
2022/06/30 03:00:39;;;;;;;5.37;3.10;;;;;;;15.61;84.14;99712.41;1727122;81;20151;-61
2022/06/30 03:03:06;;;;;;;10.80;4.08;;;;;;;15.62;84.14;99715.88;1731187;81;21559;-61
2022/06/30 03:05:33;;;;;;;6.83;3.92;;;;;;;15.75;84.28;99708.03;1737449;81;21069;-62
2022/06/30 03:07:59;;;;;;;7.97;3.58;;;;;;;15.99;84.65;99718.63;1731850;81;21439;-61
2022/06/30 03:10:26;;;;;;;19.37;4.05;;;;;;;16.24;84.43;99718.59;1727374;81;21048;-61
2022/06/30 03:12:53;;;;;;;7.40;3.33;;;;;;;16.48;84.08;99709.91;1731069;81;21180;-61
2022/06/30 03:15:20;;;;;;;10.80;4.30;;;;;;;16.66;83.53;99716.47;1737420;81;21037;-61
2022/06/30 03:17:47;;;;;;;6.85;3.70;;;;;;;16.77;83.25;99706.02;1731037;82;21649;-61
2022/06/30 03:20:13;;;;;;;6.30;3.65;;;;;;;17.00;83.27;99714.89;1732558;81;22302;-61
2022/06/30 03:22:40;;;;;;;14.05;4.00;;;;;;;17.23;82.96;99713.17;1730909;81;21009;-61
2022/06/30 03:25:07;;;;;;;12.25;4.58;;;;;;;17.30;82.94;99712.22;1733274;81;21006;-61
2022/06/30 03:27:34;;;;;;;;;;;;;;;17.47;83.23;99716.70;1730386;81;21634;-62
2022/06/30 03:30:00;;;;;;;6.83;5.12;;;;;;;17.52;82.91;99720.67;1736786;81;20737;-61
2022/06/30 03:32:27;;;;;;;7.30;5.33;;;;;;;17.45;82.94;99722.12;1737028;81;21911;-61
2022/06/30 03:34:54;;;;;;;11.45;5.28;;;;;;;17.32;83.04;99717.39;1730869;81;21085;-62
2022/06/30 03:37:20;;;;;;;23.18;6.95;;;;;;;17.25;83.18;99720.13;1735782;81;21085;-61
2022/06/30 03:39:48;;;;;;;20.72;6.10;;;;;;;17.15;83.24;99723.45;1733355;81;21670;-61
2022/06/30 03:42:14;;;;;;;25.17;6.45;;;;;;;17.08;83.39;99724.85;1728960;81;25589;-62
2022/06/30 03:44:41;;;;;;;16.35;6.17;;;;;;;16.99;83.40;99730.81;1730930;80;21085;-61
2022/06/30 03:47:08;;;;;;;;;;;;;;;16.93;83.47;99731.27;1734353;81;21109;-61
2022/06/30 03:49:35;;;;;;;7.33;6.58;;;;;;;16.90;83.52;99736.78;1723958;81;20163;-61
2022/06/30 03:52:02;;;;;;;8.28;7.42;;;;;;;16.89;83.85;99743.02;1724975;81;21296;-62
2022/06/30 03:54:28;;;;;;;7.30;6.50;;;;;;;16.98;83.92;99747.61;1724204;81;21030;-62
2022/06/30 03:56:55;;;;;;;8.65;6.47;;;;;;;17.12;84.00;99750.06;1731642;81;21436;-61
2022/06/30 03:59:22;;;;;;;6.42;5.42;;;;;;;17.32;84.18;99758.30;1723745;82;21034;-61
2022/06/30 04:01:48;;;;;;;5.58;5.05;;;;;;;17.53;83.95;99763.30;1730424;81;20969;-61
2022/06/30 04:04:15;;;;;;;6.70;4.58;;;;;;;17.52;83.41;99758.12;1726532;81;20934;-61
2022/06/30 04:06:42;;;;;;;5.40;3.60;;;;;;;17.53;83.50;99756.70;1728861;81;21011;-62
2022/06/30 04:09:09;;;;;;;;;;;;;;;17.55;83.43;99761.36;1730596;81;21086;-62
2022/06/30 04:11:36;;;;;;;5.42;3.85;;;;;;;17.59;83.67;99766.79;1727730;81;20426;-61
2022/06/30 04:14:02;;;;;;;4.65;4.10;;;;;;;17.63;83.43;99768.23;1728355;81;20996;-61
2022/06/30 04:16:29;;;;;;;7.62;4.67;;;;;;;17.56;83.38;99761.74;1731248;81;21077;-62
2022/06/30 04:18:56;;;;;;;6.75;5.30;;;;;;;17.49;83.47;99768.42;1727442;81;21042;-61
2022/06/30 04:21:22;;;;;;;7.08;5.33;;;;;;;17.46;83.75;99779.22;1725115;81;21510;-61
2022/06/30 04:23:49;;;;;;;5.60;5.10;;;;;;;17.43;83.77;99776.81;1726490;81;21030;-62
2022/06/30 04:26:16;;;;;;;14.33;8.28;;;;;;;17.38;83.83;99773.67;1726621;81;22060;-61
2022/06/30 04:28:42;;;;;;;13.83;10.65;;;;;;;17.35;83.95;99777.86;1728623;81;21554;-62
2022/06/30 04:33:55;;;;;;;16.55;11.95;;;;;;;17.12;84.04;99787.00;1726768;81;21566;-61
2022/06/30 04:36:21;;;;;;;22.35;12.75;;;;;;;16.98;84.22;99785.85;1728789;81;21057;-61
2022/06/30 04:38:48;;;;;;;16.27;11.45;;;;;;;16.96;84.55;99787.27;1728004;81;20969;-61
2022/06/30 04:41:24;;;;;;;15.15;11.12;;;;;;;17.00;84.69;99791.38;1723576;81;21602;-61
2022/06/30 04:43:59;;;;;;;17.50;10.95;;;;;;;16.97;84.83;99790.74;1724851;81;21099;-61
2022/06/30 04:46:27;;;;;;;12.60;8.50;;;;;;;16.90;84.89;99790.84;1715418;80;22971;-62
2022/06/30 04:48:54;;;;;;;12.35;9.70;;;;;;;16.88;85.21;99792.73;1706125;82;21145;-62
2022/06/30 04:51:21;;;;;;;11.97;9.78;;;;;;;16.84;85.24;99789.48;1712361;81;21089;-62
2022/06/30 04:53:48;;;;;;;15.38;10.80;;;;;;;16.82;85.40;99797.14;1729610;81;21707;-62
2022/06/30 04:56:16;;;;;;;15.68;9.75;;;;;;;16.80;85.61;99799.88;1732060;81;26762;-61
2022/06/30 04:58:43;;;;;;;15.35;9.83;;;;;;;16.84;85.92;99805.80;1730629;81;21058;-62
2022/06/30 05:01:11;;;;;;;14.83;9.45;;;;;;;16.89;85.98;99801.88;1727451;81;21073;-62
2022/06/30 05:03:41;;;;;;;16.62;10.18;;;;;;;16.96;85.99;99796.98;1730921;81;21085;-62
2022/06/30 05:06:08;;;;;;;13.85;9.65;;;;;;;17.04;86.14;99807.82;1725481;81;21093;-62
2022/06/30 05:08:35;;;;;;;19.32;10.60;;;;;;;17.13;86.06;99811.58;1730687;81;21026;-62
2022/06/30 05:11:03;;;;;;;13.35;10.88;;;;;;;17.23;86.08;99821.36;1731424;81;21120;-62
2022/06/30 05:13:29;;;;;;;18.40;12.82;;;;;;;17.33;86.07;99820.19;1728612;81;21081;-63
2022/06/30 05:15:56;;;;;;;17.17;12.75;;;;;;;17.41;85.95;99810.39;1726228;81;21129;-63
2022/06/30 05:18:26;;;;;;;20.35;13.75;;;;;;;17.47;85.97;99815.20;1727619;81;21025;-62
2022/06/30 05:20:51;;;;;;;20.65;13.05;;;;;;;17.54;85.99;99816.45;1728402;81;21054;-63
2022/06/30 05:28:46;;;;;;;17.55;13.90;;;;;;;17.99;86.07;99813.95;1835116;77;20936;-61
2022/06/30 05:31:13;;;;;;;22.62;14.25;;;;;;;18.06;86.01;99813.86;1839396;77;21059;-61
2022/06/30 05:33:39;;;;;;;17.62;12.85;;;;;;;18.29;86.45;99824.45;1831348;77;20981;-62
2022/06/30 05:36:08;;;;;;;18.10;12.00;;;;;;;18.52;86.19;99827.45;1830271;77;21024;-61
2022/06/30 05:38:34;;;;;;;15.90;10.82;;;;;;;18.71;85.85;99832.13;1829974;77;21020;-62
2022/06/30 05:41:01;;;;;;;21.87;14.33;;;;;;;18.83;85.69;99825.05;1836943;77;21083;-62
2022/06/30 05:43:28;;;;;;;16.12;13.05;;;;;;;18.91;85.46;99822.63;1832297;77;21049;-62
2022/06/30 05:45:55;;;;;;;18.85;13.45;;;;;;;19.05;85.18;99818.04;1839029;76;21027;-62
2022/06/30 05:48:22;;;;;;;16.50;14.05;;;;;;;19.03;85.09;99817.31;1838598;77;21178;-62
2022/06/30 05:50:49;;;;;;;17.23;14.23;;;;;;;19.13;85.22;99808.97;1832153;77;20945;-62
2022/06/30 05:53:16;;;;;;;14.78;13.10;;;;;;;19.20;85.00;99811.48;1838142;77;20974;-61
2022/06/30 05:55:43;;;;;;;16.17;12.45;;;;;;;19.24;84.83;99806.31;1835649;77;23214;-61
2022/06/30 05:58:14;;;;;;;19.95;12.95;;;;;;;19.25;84.62;99797.39;1833860;77;21006;-61
2022/06/30 06:00:41;;;;;;;25.10;13.53;;;;;;;19.25;84.68;99796.07;1834111;77;21032;-62
2022/06/30 06:03:08;;;;;;;16.02;12.20;;;;;;;19.22;84.35;99789.22;1833670;77;21000;-63
2022/06/30 06:05:35;;;;;;;17.85;12.68;;;;;;;19.14;84.33;99781.55;1833390;77;21069;-62
2022/06/30 06:08:07;;;;;;;15.05;11.08;;;;;;;19.05;84.21;99779.19;1836220;77;22219;-63
2022/06/30 06:10:33;;;;;;;16.82;12.85;;;;;;;18.99;84.32;99773.91;1832826;77;21046;-61
2022/06/30 06:13:00;;;;;;;18.17;12.05;;;;;;;18.95;84.32;99768.49;1807111;77;21688;-62
2022/06/30 06:15:29;;;;;;;16.90;11.73;;;;;;;18.95;84.36;99763.20;1819230;77;21558;-64
2022/06/30 06:17:56;;;;;;;17.98;11.08;;;;;;;18.96;84.27;99749.02;1837563;77;21079;-64
2022/06/30 06:20:22;;;;;;;20.75;11.48;;;;;;;18.93;84.15;99738.70;1837027;77;21889;-62
2022/06/30 06:22:49;;;;;;;21.15;12.37;;;;;;;18.95;84.20;99723.52;1835037;77;21582;-62
2022/06/30 06:25:17;;;;;;;12.63;10.00;;;;;;;18.98;84.20;99704.73;1823731;77;21592;-62
2022/06/30 06:29:05;;;;;;;13.62;10.32;;;;;;;19.00;84.17;99717.36;1822154;78;21643;-63
2022/06/30 06:30:13;;;;;;;14.55;10.05;;;;;;;18.97;84.03;99707.04;1814760;77;20896;-62
2022/06/30 06:32:40;;;;;;;19.00;10.85;;;;;;;18.92;83.92;99696.48;1819160;77;21916;-64
2022/06/30 06:35:09;;;;;;;13.60;9.95;;;;;;;18.84;83.91;99689.16;1816739;78;20950;-63
2022/06/30 06:37:35;;;;;;;12.43;9.45;;;;;;;18.79;83.83;99680.77;1759345;80;21064;-62
2022/06/30 06:40:07;;;;;;;11.30;9.95;;;;;;;18.70;83.67;99662.98;1756438;80;21074;-62
2022/06/30 06:42:33;;;;;;;14.65;10.23;;;;;;;18.64;83.82;99647.62;1777648;79;21003;-62
2022/06/30 06:45:00;;;;;;;12.18;9.55;;;;;;;18.59;83.74;99641.86;1752329;80;21100;-64
2022/06/30 06:47:27;;;;;;;13.48;10.08;;;;;;;18.58;83.84;99621.69;1747296;81;21089;-61
2022/06/30 06:49:53;;;;;;;12.50;9.73;;;;;;;18.59;83.84;99611.45;1772196;80;21799;-61
2022/06/30 06:52:20;;;;;;;13.18;9.68;;;;;;;18.65;84.01;99613.13;1760727;80;21503;-62
2022/06/30 06:54:47;;;;;;;11.28;9.58;;;;;;;18.75;84.10;99598.67;1763182;80;22389;-61
2022/06/30 06:57:14;;;;;;;11.50;8.43;;;;;;;18.81;83.87;99580.97;1762305;81;22426;-61
2022/06/30 06:59:41;;;;;;;10.98;8.35;;;;;;;18.78;83.67;99574.13;1760271;80;21025;-60
2022/06/30 07:02:08;;;;;;;10.90;7.78;;;;;;;18.81;83.99;99562.45;1736752;80;20947;-61
2022/06/30 07:04:35;;;;;;;15.68;8.15;;;;;;;18.87;83.96;99583.09;1745833;81;21005;-61
2022/06/30 07:07:03;;;;;;;13.13;8.55;;;;;;;18.87;83.66;99569.86;1760465;80;21718;-61
2022/06/30 07:09:29;;;;;;;11.35;8.08;;;;;;;18.89;83.88;99560.00;1759552;80;21030;-62
2022/06/30 07:11:56;;;;;;;10.55;8.85;;;;;;;18.90;83.87;99553.73;1760974;80;20937;-61
2022/06/30 07:14:23;;;;;;;10.98;7.85;;;;;;;18.92;83.73;99538.58;1759782;80;21057;-61
2022/06/30 07:16:49;;;;;;;11.22;8.35;;;;;;;18.91;83.79;99516.23;1745958;80;21128;-61
2022/06/30 07:19:16;;;;;;;13.53;8.60;;;;;;;18.91;83.82;99493.27;1751129;80;21061;-61
2022/06/30 07:21:45;;;;;;;13.40;8.40;;;;;;;18.92;83.84;99487.48;1752435;80;21090;-61
2022/06/30 07:24:12;;;;;;;13.25;8.35;;;;;;;18.91;83.75;99484.00;1781584;79;20946;-62
2022/06/30 07:26:39;;;;;;;12.20;8.35;;;;;;;18.93;84.02;99499.27;1799431;78;28319;-62
2022/06/30 07:29:06;;;;;;;13.28;8.03;;;;;;;19.01;84.26;99513.97;1798065;78;21582;-62
2022/06/30 07:31:33;;;;;;;10.18;7.42;;;;;;;19.11;84.42;99525.11;1800276;78;20977;-63
2022/06/30 07:33:59;;;;;;;10.43;7.90;;;;;;;19.23;84.67;99534.63;1801366;78;20998;-63
2022/06/30 07:36:26;;;;;;;13.30;7.17;;;;;;;19.44;84.82;99543.37;1798610;78;20982;-62
2022/06/30 07:38:53;;;;;;;10.38;7.45;;;;;;;19.59;84.45;99553.59;1802134;78;20914;-62
2022/06/30 07:41:20;;;;;;;18.75;7.10;;;;;;;19.63;84.56;99553.66;1796798;78;21088;-62
2022/06/30 07:43:47;;;;;;;10.70;7.90;;;;;;;19.71;84.65;99551.21;1798208;78;21071;-63
2022/06/30 07:46:14;;;;;;;12.93;7.60;;;;;;;19.73;84.62;99551.92;1796134;78;21609;-61
2022/06/30 07:48:41;;;;;;;;;;;;;;;19.78;84.77;99561.63;1804039;78;20957;-62
2022/06/30 07:51:08;;;;;;;10.60;7.90;;;;;;;19.83;84.68;99570.52;1795010;78;26738;-62
2022/06/30 07:53:34;;;;;;;12.75;7.12;;;;;;;19.86;84.72;99563.12;1794893;78;21052;-61
2022/06/30 07:56:01;;;;;;;11.35;7.20;;;;;;;19.90;85.02;99569.81;1798090;78;21005;-61
2022/06/30 07:58:28;;;;;;;11.03;7.58;;;;;;;20.04;85.15;99570.41;1764238;80;21099;-62
2022/06/30 08:00:55;;;;;;;8.43;6.15;;;;;;;20.23;85.31;99565.13;1779139;78;20967;-62
2022/06/30 08:03:21;;;;;;;12.90;6.95;;;;;;;20.50;85.35;99563.59;1784120;79;21079;-62
2022/06/30 08:05:48;;;;;;;7.45;5.72;;;;;;;20.61;84.88;99566.13;1775209;79;21527;-61
2022/06/30 08:08:17;;;;;;;12.95;6.20;;;;;;;20.78;85.19;99565.45;1770010;79;22286;-62
2022/06/30 08:10:43;;;;;;;9.45;5.17;;;;;;;20.86;84.56;99564.71;1772444;79;21198;-61
2022/06/30 08:13:10;;;;;;;11.80;5.12;;;;;;;20.89;84.51;99550.33;1777531;78;20891;-61
2022/06/30 08:15:38;;;;;;;7.80;5.78;;;;;;;21.05;84.66;99551.90;1785403;79;20990;-61
2022/06/30 08:18:29;;;;;;;11.43;5.12;;;;;;;21.19;84.41;99555.42;1776648;79;21022;-62
2022/06/30 08:20:56;;;;;;;9.55;4.45;;;;;;;21.34;84.53;99536.36;1719012;81;21063;-61
2022/06/30 08:23:24;;;;;;;9.90;4.53;;;;;;;21.47;83.80;99540.89;1721340;81;25709;-61
2022/06/30 08:25:53;;;;;;;10.45;4.92;;;;;;;21.51;83.62;99550.25;1719239;81;21016;-62
2022/06/30 08:28:20;;;;;;;11.20;4.60;;;;;;;21.73;83.50;99562.78;1728501;81;21071;-62
2022/06/30 08:30:48;;;;;;;5.42;4.00;;;;;;;21.88;83.39;99573.27;1719348;82;21589;-60
2022/06/30 08:33:15;;;;;;;8.75;4.60;;;;;;;22.04;83.13;99576.12;1719575;82;21119;-61
2022/06/30 08:35:42;;;;;;;;;;;;;;;22.09;82.80;99584.45;1729075;81;21515;-61
2022/06/30 08:38:08;;;;;;;;;;;;;;;22.15;82.51;99587.51;1697854;82;21016;-62
2022/06/30 08:43:23;;;;;;;;;;;;;;;22.27;80.62;99591.17;1730998;81;21169;-60
2022/06/30 08:45:55;;;;;;;8.33;3.80;;;;;;;22.39;81.68;99599.77;1693271;81;20104;-61
2022/06/30 08:48:28;;;;;;;7.22;3.65;;;;;;;22.52;81.73;99614.86;1724273;80;21636;-62
2022/06/30 08:51:04;;;;;;;11.33;3.70;;;;;;;22.73;81.42;99619.03;1708117;80;21068;-60
2022/06/30 08:53:45;;;;;;;10.38;3.37;;;;;;;22.95;81.35;99627.91;1682347;82;21107;-62
2022/06/30 08:56:16;;;;;;;6.28;3.42;;;;;;;23.21;81.20;99629.75;1716335;81;20929;-62
2022/06/30 08:58:51;;;;;;;7.37;3.20;;;;;;;23.59;80.96;99629.00;1717522;82;21159;-61
2022/06/30 09:01:40;;;;;;;5.22;3.17;;;;;;;23.98;80.75;99627.22;1723055;82;21235;-61
2022/06/30 09:04:14;;;;;;;8.90;3.35;;;;;;;24.29;79.65;99632.80;1693283;81;21024;-62
2022/06/30 09:06:46;;;;;;;8.63;3.40;;;;;;;24.40;78.47;99634.34;1718507;82;20972;-62
2022/06/30 09:12:10;;;;;;;4.87;2.85;;;;;;;24.71;78.62;99632.73;1657201;84;21140;-62
2022/06/30 09:14:45;;;;;;;2.60;2.08;;;;;;;24.74;77.08;99635.07;1663997;84;21296;-63
2022/06/30 09:17:21;;;;;;;8.65;2.62;;;;;;;24.42;76.07;99642.99;1632680;85;21083;-62
2022/06/30 09:22:52;;;;;;;11.43;2.92;;;;;;;24.06;74.69;99643.25;1655969;84;21100;-60
2022/06/30 09:25:23;;;;;;;10.60;2.98;;;;;;;23.79;73.50;99642.45;1719268;81;21138;-62
2022/06/30 09:28:16;;;;;;;6.42;2.50;;;;;;;23.64;74.65;99649.36;1714208;81;21071;-61
2022/06/30 09:30:47;;;;;;;5.95;2.52;;;;;;;23.78;74.64;99650.13;1664110;84;21012;-61
2022/06/30 09:33:18;;;;;;;7.05;2.22;;;;;;;23.86;73.45;99646.16;1660000;84;21108;-61
2022/06/30 09:36:21;;;;;;;4.67;2.47;;;;;;;23.82;71.95;99642.63;1652630;84;21767;-62
2022/06/30 09:39:13;;;;;;;6.80;2.50;;;;;;;23.88;72.54;99649.48;1693348;81;21364;-62
2022/06/30 09:41:44;;;;;;;10.15;2.72;;;;;;;24.29;73.28;99646.98;1688689;81;21553;-62
2022/06/30 09:44:24;;;;;;;4.60;2.65;;;;;;;24.67;72.57;99642.06;1724953;81;21070;-62
2022/06/30 09:47:08;;;;;;;5.87;2.10;;;;;;;24.91;70.79;99645.77;1684920;82;21565;-61
2022/06/30 09:49:45;;;;;;;8.70;2.27;;;;;;;24.69;69.67;99650.75;1719960;81;21573;-62
2022/06/30 09:52:25;;;;;;;7.20;2.77;;;;;;;24.55;69.60;99643.39;1724230;81;21530;-62
2022/06/30 09:55:04;;;;;;;3.72;2.80;;;;;;;24.54;69.21;99641.73;1686816;82;21608;-61
2022/06/30 09:57:40;;;;;;;6.22;2.17;;;;;;;24.60;68.92;99649.08;1723799;80;20917;-62
2022/06/30 10:00:17;;;;;;;7.12;2.83;;;;;;;24.60;66.70;99643.73;1722589;81;20976;-62
2022/06/30 10:02:53;;;;;;;4.35;2.20;;;;;;;24.48;67.64;99651.23;1725021;81;21100;-63
2022/06/30 10:05:21;;;;;;;11.22;2.37;;;;;;;24.70;67.41;99651.10;1724822;81;21043;-63
2022/06/30 10:07:58;;;;;;;3.58;2.20;;;;;;;24.87;66.79;99660.44;1703549;81;21138;-63
2022/06/30 10:10:29;;;;;;;7.85;2.30;;;;;;;24.99;65.92;99656.45;1720589;81;21101;-62
2022/06/30 10:12:59;;;;;;;8.78;2.75;;;;;;;25.16;65.73;99655.47;1730140;81;21737;-62
2022/06/30 10:15:32;;;;;;;3.10;2.12;;;;;;;25.47;66.19;99656.09;1707242;81;21332;-62
2022/06/30 10:18:03;;;;;;;6.17;2.27;;;;;;;25.81;64.88;99645.64;1693478;81;21742;-60
2022/06/30 10:20:38;;;;;;;4.95;2.47;;;;;;;25.76;64.39;99653.34;1707309;81;21342;-62
2022/06/30 10:23:07;;;;;;;4.85;2.45;;;;;;;25.98;64.38;99631.22;1689383;82;22380;-63
2022/06/30 10:25:38;;;;;;;4.90;2.30;;;;;;;26.07;64.25;99639.52;1712964;82;21032;-62
2022/06/30 10:28:09;;;;;;;7.75;3.02;;;;;;;26.16;63.31;99639.01;1728327;81;21139;-61
2022/06/30 10:30:49;;;;;;;3.40;2.20;;;;;;;26.31;63.38;99639.09;1720619;81;21039;-62
2022/06/30 10:34:10;;;;;;;6.42;2.50;;;;;;;26.42;63.19;99634.67;1800208;78;20995;-62
2022/06/30 10:37:07;;;;;;;5.20;2.40;;;;;;;26.43;62.49;99637.66;1815140;77;21078;-62
2022/06/30 10:39:54;;;;;;;5.08;2.92;;;;;;;26.17;61.26;99631.81;1769544;80;21040;-62
2022/06/30 10:42:49;;;;;;;5.00;2.45;;;;;;;25.68;60.15;99639.00;1741078;81;21075;-61
2022/06/30 10:45:35;;;;;;;7.03;2.42;;;;;;;25.41;60.18;99644.75;1732333;81;21088;-61
2022/06/30 10:48:08;;;;;;;6.47;2.80;;;;;;;25.51;60.71;99630.67;1739765;81;21094;-62
2022/06/30 10:50:59;;;;;;;5.90;2.65;;;;;;;25.76;60.38;99643.47;1744347;80;21175;-61
2022/06/30 10:53:41;;;;;;;16.65;3.30;;;;;;;26.22;60.49;99627.59;1731463;81;21187;-62
2022/06/30 10:56:12;;;;;;;9.65;2.25;;;;;;;26.78;60.63;99618.05;1742421;81;21037;-62
2022/06/30 10:59:04;;;;;;;9.08;2.70;;;;;;;26.93;58.78;99617.58;1744282;81;21089;-62
2022/06/30 11:01:41;;;;;;;13.40;2.65;;;;;;;26.89;58.42;99621.64;1753578;81;21036;-62
2022/06/30 11:04:13;;;;;;;9.98;3.00;;;;;;;26.71;57.61;99617.09;1751981;81;21030;-61
2022/06/30 11:06:57;;;;;;;8.33;2.80;;;;;;;26.50;57.25;99615.91;1726432;81;20993;-62
2022/06/30 11:09:49;;;;;;;7.97;2.67;;;;;;;26.34;57.54;99614.64;1742291;81;21083;-64
2022/06/30 11:12:32;;;;;;;5.72;3.62;;;;;;;26.34;57.66;99603.94;1738291;81;21610;-62
2022/06/30 11:15:02;;;;;;;5.90;3.17;;;;;;;26.33;57.45;99606.30;1751724;81;21064;-61
2022/06/30 11:17:33;;;;;;;6.60;2.92;;;;;;;26.19;57.06;99607.05;1777203;79;21171;-61
2022/06/30 11:20:25;;;;;;;7.37;3.02;;;;;;;26.20;57.46;99602.84;1772261;79;21002;-62
2022/06/30 11:22:56;;;;;;;7.28;2.67;;;;;;;26.34;57.87;99601.26;1742021;81;21597;-63
2022/06/30 11:28:13;;;;;;;7.42;2.50;;;;;;;26.24;56.83;99592.61;1771311;80;21280;-61
2022/06/30 11:30:44;;;;;;;5.92;2.62;;;;;;;26.10;57.29;99592.38;1757742;80;21070;-61
2022/06/30 11:33:14;;;;;;;5.45;2.90;;;;;;;26.22;57.50;99596.00;1765423;80;21052;-62
2022/06/30 11:35:43;;;;;;;6.47;3.95;;;;;;;26.20;56.64;99592.66;1764219;80;21030;-62
2022/06/30 11:38:32;;;;;;;6.17;2.72;;;;;;;26.09;56.88;99589.87;1771042;79;21069;-61
2022/06/30 11:41:54;;;;;;;7.60;3.85;;;;;;;26.04;57.35;99590.38;1678162;84;21141;-62
2022/06/30 11:43:29;;;;;;;31.20;4.58;;;;;;;26.25;57.57;99594.30;1679968;84;21015;-62
2022/06/30 11:46:25;;;;;;;6.90;2.83;;;;;;;26.25;57.37;99582.26;1680192;84;21020;-62
2022/06/30 11:49:17;;;;;;;7.60;3.35;;;;;;;26.19;57.31;99582.97;1709054;81;20972;-61
2022/06/30 11:51:48;;;;;;;4.15;2.67;;;;;;;26.25;57.25;99587.61;1727364;79;21353;-63
2022/06/30 11:54:21;;;;;;;11.65;2.87;;;;;;;26.19;56.86;99592.34;1743758;80;21428;-62
2022/06/30 11:56:54;;;;;;;6.92;2.75;;;;;;;26.30;57.06;99587.92;1757214;80;20987;-61
2022/06/30 11:59:23;;;;;;;4.50;3.05;;;;;;;26.40;57.13;99592.52;1756187;79;20984;-62
2022/06/30 12:02:08;;;;;;;6.75;2.75;;;;;;;26.45;57.00;99583.45;1761447;80;21648;-61
2022/06/30 12:04:37;;;;;;;9.40;3.25;;;;;;;26.35;56.99;99581.50;1769333;78;21033;-61
2022/06/30 12:07:11;;;;;;;8.05;2.70;;;;;;;26.40;57.30;99593.85;1726258;81;21705;-62
2022/06/30 12:09:42;;;;;;;10.75;3.55;;;;;;;26.64;57.30;99590.72;1757314;80;21035;-62